Time;durP1;ratioP1;P1;durP2;ratioP2;P2;SDS_P1;SDS_P2;PMS_P1;PMS_P2;Temp;Humidity;BMP_temperature;BMP_pressure;BME280_temperature;BME280_humidity;BME280_pressure;Samples;Min_cycle;Max_cycle;Signal;HPM_P1;HPM_P2
2021/04/07 00:01:19;;;;;;;6.37;4.63;;;;;;;0.69;68.76;96125.56;5010165;28;20227;-69
2021/04/07 00:03:45;;;;;;;4.83;4.33;;;;;;;0.65;67.61;96131.88;5020519;28;20202;-69
2021/04/07 00:06:11;;;;;;;6.10;4.67;;;;;;;0.80;67.87;96129.91;5029600;28;20194;-70
2021/04/07 00:08:37;;;;;;;6.63;4.53;;;;;;;0.66;67.41;96130.94;5025463;28;20261;-68
2021/04/07 00:11:02;;;;;;;7.10;4.27;;;;;;;0.72;68.00;96132.25;5012994;28;20434;-67
2021/04/07 00:13:28;;;;;;;5.37;4.87;;;;;;;0.82;67.98;96132.38;5012174;28;20177;-68
2021/04/07 00:15:54;;;;;;;4.80;4.30;;;;;;;0.82;67.60;96132.38;5029393;28;20213;-69
2021/04/07 00:18:19;;;;;;;5.50;3.70;;;;;;;0.59;67.92;96132.38;5027171;28;20181;-69
2021/04/07 00:20:45;;;;;;;4.93;4.20;;;;;;;0.88;67.49;96137.06;5031143;28;20269;-68
2021/04/07 00:23:11;;;;;;;4.60;4.10;;;;;;;0.45;68.51;96133.41;5030436;28;20187;-69
2021/04/07 00:25:37;;;;;;;4.83;3.83;;;;;;;0.73;67.03;96136.47;5030719;28;20273;-67
2021/04/07 00:28:08;;;;;;;8.53;4.87;;;;;;;0.65;68.07;96147.38;5030472;28;20215;-69
2021/04/07 00:30:35;;;;;;;5.87;4.50;;;;;;;0.53;68.05;96163.75;5031927;28;20450;-68
2021/04/07 00:33:01;;;;;;;8.10;4.57;;;;;;;0.45;67.95;96157.44;5031056;28;20796;-68
2021/04/07 00:35:27;;;;;;;4.50;4.10;;;;;;;0.69;67.38;96153.13;5028015;28;20426;-68
2021/04/07 00:37:53;;;;;;;5.23;3.83;;;;;;;0.57;67.56;96160.03;5008516;28;20538;-69
2021/04/07 00:40:19;;;;;;;4.67;3.83;;;;;;;0.97;67.21;96161.31;5024956;28;20452;-68
2021/04/07 00:42:47;;;;;;;5.40;3.90;;;;;;;0.81;66.71;96159.94;5031582;28;20199;-69
2021/04/07 00:45:13;;;;;;;4.87;3.97;;;;;;;0.73;67.67;96157.94;5029620;28;20436;-69
2021/04/07 00:47:39;;;;;;;6.10;4.30;;;;;;;0.94;66.91;96159.81;5030287;28;20465;-68
2021/04/07 00:50:06;;;;;;;7.03;4.73;;;;;;;0.33;68.72;96173.81;5029845;28;20194;-67
2021/04/07 00:52:31;;;;;;;5.17;4.23;;;;;;;0.58;67.75;96177.13;5015454;28;20184;-69
2021/04/07 00:54:58;;;;;;;4.80;3.80;;;;;;;0.54;67.85;96167.97;5019863;28;20437;-69
2021/04/07 00:57:24;;;;;;;4.40;4.00;;;;;;;0.67;67.82;96173.06;5029723;28;20207;-69
2021/04/07 00:59:51;;;;;;;6.90;4.30;;;;;;;0.86;66.58;96173.28;5029661;28;20440;-68
2021/04/07 01:02:18;;;;;;;5.77;4.53;;;;;;;0.56;68.22;96181.59;5029718;28;20454;-68
2021/04/07 01:04:44;;;;;;;5.63;4.20;;;;;;;1.17;66.47;96181.25;5030657;28;20437;-68
2021/04/07 01:07:11;;;;;;;4.13;3.73;;;;;;;0.59;67.86;96183.94;5022667;28;20836;-68
2021/04/07 01:09:37;;;;;;;4.50;4.10;;;;;;;0.75;67.86;96173.28;5024084;28;20431;-66
2021/04/07 01:12:03;;;;;;;6.93;4.80;;;;;;;0.87;66.37;96177.50;5030715;28;20442;-67
2021/04/07 01:14:29;;;;;;;7.23;4.10;;;;;;;0.61;66.81;96184.66;5029641;28;20914;-68
2021/04/07 01:16:55;;;;;;;4.83;4.20;;;;;;;1.07;66.20;96173.41;5012613;28;20460;-67
2021/04/07 01:19:22;;;;;;;4.80;4.00;;;;;;;0.69;66.59;96173.75;5024945;28;20269;-67
2021/04/07 01:21:48;;;;;;;7.90;5.60;;;;;;;0.43;67.67;96179.94;5030069;28;20216;-67
2021/04/07 01:24:14;;;;;;;8.17;4.83;;;;;;;0.67;66.96;96179.03;5030861;28;20449;-67
2021/04/07 01:26:39;;;;;;;5.03;4.53;;;;;;;0.58;66.51;96183.09;5029643;28;20219;-69
2021/04/07 01:29:05;;;;;;;4.80;3.90;;;;;;;0.81;65.93;96174.56;5027846;28;20194;-68
2021/04/07 01:31:31;;;;;;;7.30;4.53;;;;;;;0.64;66.43;96192.13;5025572;28;20573;-67
2021/04/07 01:33:56;;;;;;;8.20;4.83;;;;;;;0.63;66.20;96181.94;5021813;28;20180;-67
2021/04/07 01:36:23;;;;;;;6.40;5.03;;;;;;;0.47;66.87;96200.34;5029983;28;20453;-69
2021/04/07 01:38:50;;;;;;;5.83;4.47;;;;;;;0.72;66.05;96191.56;5028139;28;20199;-68
2021/04/07 01:41:17;;;;;;;5.63;4.60;;;;;;;0.84;66.03;96193.22;5034735;28;20523;-66
2021/04/07 01:43:43;;;;;;;8.47;5.07;;;;;;;0.67;66.07;96201.44;5033331;28;20958;-67
2021/04/07 01:46:08;;;;;;;6.03;4.77;;;;;;;0.46;66.55;96199.50;5025300;28;20445;-67
2021/04/07 01:48:34;;;;;;;7.23;5.00;;;;;;;0.28;66.73;96201.69;5033160;28;20507;-67
2021/04/07 01:51:00;;;;;;;9.53;5.17;;;;;;;0.37;67.10;96203.59;5034090;28;20560;-66
2021/04/07 01:53:26;;;;;;;7.17;5.60;;;;;;;0.42;66.41;96204.06;5014481;28;20186;-67
2021/04/07 01:55:52;;;;;;;6.10;4.70;;;;;;;0.66;66.01;96205.75;5021383;28;20209;-66
2021/04/07 01:58:17;;;;;;;7.23;5.03;;;;;;;0.58;65.59;96202.94;5034609;28;20433;-66
2021/04/07 02:00:43;;;;;;;8.50;5.20;;;;;;;0.41;65.86;96205.00;5034201;28;20197;-67
2021/04/07 02:03:09;;;;;;;7.40;5.30;;;;;;;0.47;65.38;96206.28;5018118;28;20193;-66
2021/04/07 02:05:34;;;;;;;8.00;5.43;;;;;;;0.80;64.30;96212.47;5034554;28;20239;-66
2021/04/07 02:08:00;;;;;;;8.50;5.83;;;;;;;0.15;66.37;96207.72;5032583;28;20670;-67
2021/04/07 02:10:26;;;;;;;13.30;5.80;;;;;;;0.48;65.65;96202.78;5027452;28;20664;-67
2021/04/07 02:12:55;;;;;;;10.40;5.10;;;;;;;0.58;65.42;96203.75;5033457;28;20445;-68
2021/04/07 02:15:25;;;;;;;15.93;6.23;;;;;;;0.58;64.69;96208.09;5013626;28;20187;-67
2021/04/07 02:17:51;;;;;;;9.47;5.53;;;;;;;0.42;64.92;96213.56;5029120;28;20453;-67
2021/04/07 02:20:18;;;;;;;10.30;5.50;;;;;;;0.66;64.55;96212.69;5034156;28;20440;-67
2021/04/07 02:22:44;;;;;;;10.50;5.43;;;;;;;0.37;65.10;96226.81;5034056;28;20430;-68
2021/04/07 02:25:10;;;;;;;15.27;6.40;;;;;;;0.40;64.68;96221.41;5033630;28;20445;-67
2021/04/07 02:27:37;;;;;;;6.60;5.23;;;;;;;0.37;65.38;96226.81;5033322;28;20564;-66
2021/04/07 02:30:08;;;;;;;8.57;5.10;;;;;;;0.24;65.62;96233.78;5033314;28;20434;-67
2021/04/07 02:32:34;;;;;;;6.03;5.43;;;;;;;0.43;65.40;96236.66;5033862;28;20452;-67
2021/04/07 02:35:00;;;;;;;9.03;6.17;;;;;;;0.24;65.43;96242.31;5032763;28;20920;-66
2021/04/07 02:37:26;;;;;;;7.20;5.63;;;;;;;0.26;65.39;96235.31;5032666;28;20205;-66
2021/04/07 02:39:51;;;;;;;6.60;5.77;;;;;;;0.04;65.94;96246.34;5027231;28;20269;-67
2021/04/07 02:42:18;;;;;;;8.07;5.77;;;;;;;0.20;65.21;96248.63;5031259;28;20208;-66
2021/04/07 02:44:44;;;;;;;5.90;5.23;;;;;;;0.25;65.44;96253.47;5033454;28;20196;-65
2021/04/07 02:47:10;;;;;;;10.17;7.00;;;;;;;0.26;64.98;96250.78;5031624;28;20523;-66
2021/04/07 02:49:36;;;;;;;8.67;5.77;;;;;;;0.73;63.69;96252.53;5033399;28;20186;-67
2021/04/07 02:52:02;;;;;;;12.53;6.73;;;;;;;0.46;64.49;96258.78;5025056;28;20457;-66
2021/04/07 02:54:28;;;;;;;14.00;7.77;;;;;;;0.33;64.71;96250.31;5033395;28;20931;-69
2021/04/07 02:56:53;;;;;;;17.10;6.90;;;;;;;0.34;64.99;96250.22;5032694;28;20451;-66
2021/04/07 02:59:19;;;;;;;10.90;6.50;;;;;;;0.22;65.15;96259.66;5033771;28;20668;-66
2021/04/07 03:01:45;;;;;;;9.80;5.77;;;;;;;0.43;63.96;96265.00;5032808;28;20273;-66
2021/04/07 03:04:10;;;;;;;7.47;6.00;;;;;;;0.53;64.45;96260.00;5033400;28;20233;-68
2021/04/07 03:06:36;;;;;;;8.83;6.30;;;;;;;0.30;64.83;96262.50;5031277;28;20218;-66
2021/04/07 03:09:03;;;;;;;8.30;6.53;;;;;;;0.29;64.87;96270.34;5025894;28;20191;-64
2021/04/07 03:11:28;;;;;;;12.67;6.40;;;;;;;0.48;64.39;96267.25;5032976;28;20799;-67
2021/04/07 03:13:55;;;;;;;7.87;6.00;;;;;;;0.47;64.65;96277.69;5029687;28;20509;-66
2021/04/07 03:16:20;;;;;;;15.33;6.67;;;;;;;0.58;63.78;96278.53;5032227;28;20234;-66
2021/04/07 03:18:46;;;;;;;7.00;5.67;;;;;;;0.41;64.73;96279.75;5028149;28;20429;-65
2021/04/07 03:21:11;;;;;;;7.53;5.77;;;;;;;0.21;64.52;96288.94;5032148;28;20194;-67
2021/04/07 03:23:37;;;;;;;9.00;5.90;;;;;;;0.26;64.29;96286.03;5032769;28;20265;-68
2021/04/07 03:26:03;;;;;;;5.90;5.30;;;;;;;0.58;63.52;96293.19;5031012;28;20214;-67
2021/04/07 03:28:30;;;;;;;7.80;5.47;;;;;;;0.48;64.00;96294.81;5029479;28;20471;-67
2021/04/07 03:30:56;;;;;;;6.23;5.40;;;;;;;0.57;63.90;96291.53;5032267;28;20191;-68
2021/04/07 03:33:30;;;;;;;9.37;5.80;;;;;;;0.64;63.60;96302.22;5032218;28;20423;-67
2021/04/07 03:35:57;;;;;;;6.80;5.10;;;;;;;0.72;63.25;96298.16;5025933;28;20453;-67
2021/04/07 03:38:22;;;;;;;5.80;4.80;;;;;;;0.41;63.91;96304.72;5024499;28;20418;-68
2021/04/07 03:40:48;;;;;;;8.03;5.70;;;;;;;0.18;64.78;96309.78;5029045;28;20483;-67
2021/04/07 03:43:16;;;;;;;6.10;5.50;;;;;;;0.18;65.57;96314.09;5032360;28;20425;-67
2021/04/07 03:45:49;;;;;;;10.03;5.73;;;;;;;0.42;64.57;96316.69;5031783;28;20465;-68
2021/04/07 03:48:16;;;;;;;7.40;5.40;;;;;;;0.36;64.91;96312.81;5030769;28;20461;-68
2021/04/07 03:50:43;;;;;;;13.47;5.60;;;;;;;0.20;65.00;96319.97;5013717;28;20443;-67
2021/04/07 03:53:10;;;;;;;5.63;5.07;;;;;;;0.42;64.40;96332.97;5007805;28;20503;-67
2021/04/07 03:55:36;;;;;;;9.30;5.30;;;;;;;0.40;64.75;96328.88;5032163;28;20793;-67
2021/04/07 04:01:23;;;;;;;7.63;5.17;;;;;;;0.26;64.80;96328.09;5936842;23;21440;-67
2021/04/07 04:03:49;;;;;;;7.10;5.13;;;;;;;0.48;64.37;96333.47;5024304;28;20462;-65
2021/04/07 04:06:14;;;;;;;8.17;5.17;;;;;;;0.59;63.48;96336.91;5019478;28;20946;-66
2021/04/07 04:08:40;;;;;;;6.30;4.67;;;;;;;0.70;63.89;96336.13;5021143;28;20233;-65
2021/04/07 04:11:05;;;;;;;5.87;4.80;;;;;;;0.72;63.56;96339.44;5022335;28;20677;-67
2021/04/07 04:13:31;;;;;;;5.87;4.27;;;;;;;0.58;64.00;96340.41;5018081;28;20258;-65
2021/04/07 04:15:57;;;;;;;8.50;4.70;;;;;;;0.47;63.89;96344.72;5007184;28;20190;-66
2021/04/07 04:18:22;;;;;;;6.13;4.60;;;;;;;0.49;63.59;96342.84;5021784;28;20172;-65
2021/04/07 04:20:48;;;;;;;6.80;4.60;;;;;;;0.50;63.35;96336.78;5012421;28;20231;-65
2021/04/07 04:23:13;;;;;;;6.27;4.70;;;;;;;0.69;63.45;96339.66;5012475;28;20498;-65
2021/04/07 04:25:39;;;;;;;4.97;4.00;;;;;;;0.60;63.11;96348.88;5012467;28;20184;-66
2021/04/07 04:28:05;;;;;;;6.07;3.97;;;;;;;0.69;62.74;96344.81;5012228;28;20207;-66
2021/04/07 04:30:30;;;;;;;4.67;4.13;;;;;;;0.35;63.46;96347.25;5020155;28;20268;-66
2021/04/07 04:32:56;;;;;;;8.73;4.87;;;;;;;0.38;62.70;96362.47;5013927;28;20232;-65
2021/04/07 04:35:22;;;;;;;5.73;4.20;;;;;;;0.60;62.87;96368.69;5010902;28;20186;-66
2021/04/07 04:37:49;;;;;;;5.90;4.20;;;;;;;0.57;62.65;96364.56;5011312;28;21053;-66
2021/04/07 04:40:15;;;;;;;5.10;4.10;;;;;;;0.40;62.39;96383.81;5011332;28;20191;-65
2021/04/07 04:42:41;;;;;;;6.40;4.30;;;;;;;0.57;62.52;96379.22;5010598;28;20865;-66
2021/04/07 04:45:08;;;;;;;4.87;3.37;;;;;;;0.26;63.06;96389.13;5012072;28;20531;-66
2021/04/07 04:47:34;;;;;;;4.20;3.77;;;;;;;0.42;62.95;96389.69;5011830;28;20472;-66
2021/04/07 04:50:00;;;;;;;8.57;3.73;;;;;;;0.37;62.48;96402.09;5012403;28;20426;-66
2021/04/07 04:52:25;;;;;;;5.00;4.10;;;;;;;0.42;62.26;96412.91;5027488;28;20934;-65
2021/04/07 04:54:51;;;;;;;4.50;3.70;;;;;;;0.19;63.11;96417.06;5013577;28;20184;-66
2021/04/07 04:57:17;;;;;;;15.87;5.10;;;;;;;0.47;62.30;96415.16;5012885;28;20229;-65
2021/04/07 04:59:43;;;;;;;16.27;5.80;;;;;;;0.51;61.91;96424.31;5011650;28;20195;-69
2021/04/07 05:02:09;;;;;;;13.77;4.77;;;;;;;0.65;61.67;96420.75;5012143;28;20589;-66
2021/04/07 05:04:35;;;;;;;18.63;5.87;;;;;;;0.74;61.30;96430.44;5015460;28;20442;-66
2021/04/07 05:07:00;;;;;;;8.07;3.40;;;;;;;0.62;60.71;96433.88;5011957;28;20203;-67
2021/04/07 05:09:26;;;;;;;5.23;3.30;;;;;;;0.48;60.71;96428.88;5014447;28;20264;-67
2021/04/07 05:11:52;;;;;;;15.10;5.23;;;;;;;0.81;60.30;96437.72;5011532;28;20206;-67
2021/04/07 05:14:18;;;;;;;6.70;3.60;;;;;;;0.59;60.85;96442.63;5007212;28;20557;-68
2021/04/07 05:16:43;;;;;;;5.40;3.60;;;;;;;0.58;60.42;96448.72;5012049;28;20188;-68
2021/04/07 05:19:09;;;;;;;86.97;18.13;;;;;;;0.60;60.33;96449.44;5018071;28;20430;-67
2021/04/07 05:21:35;;;;;;;7.53;3.60;;;;;;;0.92;59.72;96448.06;5011497;28;20210;-64
2021/04/07 05:24:01;;;;;;;6.40;3.60;;;;;;;0.89;59.53;96443.13;5012158;28;20191;-65
2021/04/07 05:26:26;;;;;;;6.80;3.10;;;;;;;1.11;58.67;96447.56;5011531;28;20191;-67
2021/04/07 05:28:52;;;;;;;6.90;3.23;;;;;;;1.09;58.73;96448.63;5010979;28;20647;-65
2021/04/07 05:31:18;;;;;;;7.13;3.57;;;;;;;0.83;58.80;96454.72;5011143;28;20225;-66
2021/04/07 05:33:46;;;;;;;5.13;3.13;;;;;;;0.86;59.40;96459.66;5013701;28;20235;-68
2021/04/07 05:36:14;;;;;;;5.60;2.90;;;;;;;0.57;59.13;96459.97;5011466;28;20521;-65
2021/04/07 05:38:39;;;;;;;7.07;3.50;;;;;;;0.87;59.51;96471.63;5011808;28;20433;-67
2021/04/07 05:41:05;;;;;;;5.63;3.30;;;;;;;0.99;59.03;96464.78;5009793;28;20549;-65
2021/04/07 05:43:32;;;;;;;6.70;3.10;;;;;;;0.91;58.72;96472.22;5011438;28;20266;-66
2021/04/07 05:45:58;;;;;;;15.70;6.10;;;;;;;0.92;58.97;96471.28;5008210;28;20431;-66
2021/04/07 05:48:23;;;;;;;12.90;4.70;;;;;;;0.79;58.78;96484.28;5019146;28;20470;-66
2021/04/07 05:50:50;;;;;;;4.50;3.13;;;;;;;0.82;58.39;96493.53;5011317;28;20205;-68
2021/04/07 05:53:16;;;;;;;5.60;3.60;;;;;;;0.67;59.14;96496.25;5011013;28;20183;-67
2021/04/07 05:55:46;;;;;;;8.53;5.10;;;;;;;0.64;58.29;96500.81;5011747;28;20483;-68
2021/04/07 05:58:13;;;;;;;10.53;6.37;;;;;;;0.63;58.43;96509.47;5027949;28;20263;-68
2021/04/07 06:00:39;;;;;;;10.40;4.47;;;;;;;0.46;58.64;96519.22;5010340;28;20461;-68
2021/04/07 06:03:06;;;;;;;9.90;4.43;;;;;;;0.63;58.19;96520.63;5008759;28;20518;-67
2021/04/07 06:05:36;;;;;;;9.63;4.07;;;;;;;0.49;58.68;96518.19;5016736;28;20491;-67
2021/04/07 06:08:02;;;;;;;8.43;4.60;;;;;;;0.77;57.47;96525.63;5016024;28;20549;-65
2021/04/07 06:10:29;;;;;;;5.53;3.63;;;;;;;0.40;58.51;96540.28;5014611;28;20421;-66
2021/04/07 06:12:55;;;;;;;13.83;7.77;;;;;;;0.44;58.29;96532.22;5014585;28;20458;-67
2021/04/07 06:15:21;;;;;;;15.20;5.90;;;;;;;0.24;58.74;96540.50;5008505;28;20426;-65
2021/04/07 06:17:54;;;;;;;7.47;3.40;;;;;;;0.92;57.35;96548.72;5012207;28;20769;-65
2021/04/07 06:20:21;;;;;;;7.77;3.53;;;;;;;1.21;55.89;96551.00;5022859;28;20425;-65
2021/04/07 06:22:47;;;;;;;7.57;3.60;;;;;;;1.40;55.29;96560.81;5016349;28;20443;-67
2021/04/07 06:25:13;;;;;;;9.07;3.83;;;;;;;1.67;54.86;96557.97;5014313;28;20431;-67
2021/04/07 06:27:39;;;;;;;10.80;3.97;;;;;;;1.16;55.24;96566.81;5014456;28;20204;-66
2021/04/07 06:30:05;;;;;;;5.63;3.63;;;;;;;1.30;55.24;96552.91;5022848;28;20438;-67
2021/04/07 06:32:31;;;;;;;5.07;3.00;;;;;;;1.37;54.72;96568.78;5014083;28;20291;-65
2021/04/07 06:34:56;;;;;;;6.13;3.33;;;;;;;1.61;54.18;96571.34;5021253;28;20530;-64
2021/04/07 06:37:22;;;;;;;6.00;3.03;;;;;;;1.64;54.04;96578.03;5022727;28;20264;-66
2021/04/07 06:39:47;;;;;;;9.33;3.70;;;;;;;2.05;53.72;96591.44;5029764;28;20203;-67
2021/04/07 06:42:14;;;;;;;6.93;3.90;;;;;;;1.67;54.00;96583.81;5022889;28;20550;-65
2021/04/07 06:44:40;;;;;;;18.30;3.87;;;;;;;1.30;55.29;96581.31;5018006;28;20216;-66
2021/04/07 06:47:06;;;;;;;9.00;3.50;;;;;;;1.64;53.97;96586.59;5034910;28;20466;-66
2021/04/07 06:49:34;;;;;;;5.10;3.63;;;;;;;1.31;55.50;96593.28;5035603;28;20180;-64
2021/04/07 06:52:05;;;;;;;11.37;3.90;;;;;;;1.89;53.75;96595.16;5015517;28;20458;-66
2021/04/07 06:54:33;;;;;;;6.50;3.47;;;;;;;1.66;53.83;96608.00;4993407;28;20457;-65
2021/04/07 06:56:58;;;;;;;15.83;3.43;;;;;;;1.64;54.56;96599.53;5018295;28;20432;-68
2021/04/07 06:59:24;;;;;;;12.47;3.80;;;;;;;1.79;54.16;96607.94;5022600;28;20538;-67
2021/04/07 07:01:49;;;;;;;4.90;3.13;;;;;;;1.71;53.81;96609.44;5029428;28;20216;-66
2021/04/07 07:04:15;;;;;;;4.60;3.70;;;;;;;2.05;52.94;96612.13;5021359;28;20753;-68
2021/04/07 07:06:40;;;;;;;13.20;3.90;;;;;;;1.68;52.76;96605.31;5020119;28;20219;-68
2021/04/07 07:09:14;;;;;;;11.97;3.60;;;;;;;1.86;53.09;96618.66;5016944;28;20199;-68
2021/04/07 07:11:40;;;;;;;3.67;2.47;;;;;;;1.82;52.48;96622.38;5013360;28;20204;-66
2021/04/07 07:14:05;;;;;;;4.87;3.17;;;;;;;2.05;51.82;96628.47;5009452;28;20530;-67
2021/04/07 07:16:31;;;;;;;6.23;3.10;;;;;;;1.78;51.97;96631.28;5011076;28;20199;-68
2021/04/07 07:18:57;;;;;;;9.37;3.90;;;;;;;1.95;52.05;96633.47;5004189;28;20188;-67
2021/04/07 07:21:22;;;;;;;5.07;3.13;;;;;;;1.76;52.26;96630.59;5017036;28;20686;-68
2021/04/07 07:23:49;;;;;;;5.40;3.00;;;;;;;1.95;53.01;96638.66;5031708;28;20211;-67
2021/04/07 07:26:16;;;;;;;8.73;3.13;;;;;;;1.51;53.65;96637.53;5006703;28;20246;-66
2021/04/07 07:28:55;;;;;;;6.53;3.30;;;;;;;1.63;53.20;96648.72;5013584;28;20473;-67
2021/04/07 07:31:29;;;;;;;8.40;3.73;;;;;;;1.77;53.04;96645.97;5013087;28;20451;-68
2021/04/07 07:33:57;;;;;;;5.17;3.63;;;;;;;1.96;52.07;96634.28;5011745;28;20578;-68
2021/04/07 07:36:23;;;;;;;7.90;2.83;;;;;;;1.52;51.85;96641.75;5012718;28;20473;-68
2021/04/07 07:38:51;;;;;;;7.33;3.20;;;;;;;1.98;51.40;96650.50;5021959;28;20499;-67
2021/04/07 07:41:34;;;;;;;12.60;3.23;;;;;;;1.93;51.77;96650.84;5021349;28;20462;-67
2021/04/07 07:44:01;;;;;;;5.57;2.73;;;;;;;1.94;51.52;96651.69;5027997;28;20446;-66
2021/04/07 07:46:27;;;;;;;7.40;2.40;;;;;;;2.35;50.07;96650.38;5012947;28;20423;-67
2021/04/07 07:48:54;;;;;;;8.23;3.20;;;;;;;2.44;49.76;96652.31;5012783;28;20486;-67
2021/04/07 07:51:24;;;;;;;7.33;3.00;;;;;;;2.52;49.62;96653.47;5001859;28;20537;-67
2021/04/07 07:53:52;;;;;;;8.03;2.60;;;;;;;2.61;49.73;96657.94;5013105;28;21060;-67
2021/04/07 07:56:19;;;;;;;13.80;3.30;;;;;;;2.68;49.10;96672.09;5028341;28;20458;-66
2021/04/07 07:58:47;;;;;;;4.97;2.67;;;;;;;1.53;51.26;96674.38;5014170;28;20796;-67
2021/04/07 08:01:15;;;;;;;6.17;2.50;;;;;;;1.91;50.88;96673.41;5013480;28;20478;-67
2021/04/07 08:03:44;;;;;;;5.10;2.80;;;;;;;2.20;51.15;96683.38;5012802;28;20443;-67
2021/04/07 08:06:11;;;;;;;6.30;3.00;;;;;;;1.44;52.80;96693.13;5013965;28;20435;-67
2021/04/07 08:08:37;;;;;;;7.77;3.37;;;;;;;1.59;53.56;96697.22;5016427;28;20476;-67
2021/04/07 08:11:04;;;;;;;6.50;2.47;;;;;;;2.18;51.94;96698.19;5013673;28;20534;-66
2021/04/07 08:13:34;;;;;;;7.87;3.00;;;;;;;2.20;52.07;96701.47;5018315;28;20430;-68
2021/04/07 08:16:00;;;;;;;7.37;2.63;;;;;;;2.32;51.46;96691.16;5016037;28;20964;-68
2021/04/07 08:18:25;;;;;;;4.83;3.20;;;;;;;1.86;52.35;96692.75;5030086;28;20427;-69
2021/04/07 08:20:52;;;;;;;6.47;3.40;;;;;;;2.24;51.99;96707.25;5015111;28;20242;-68
2021/04/07 08:23:20;;;;;;;8.10;3.27;;;;;;;2.03;52.65;96701.88;4995468;28;20191;-67
2021/04/07 08:25:48;;;;;;;2.73;2.53;;;;;;;2.39;52.22;96710.50;5015816;28;20439;-68
2021/04/07 08:28:16;;;;;;;3.40;2.50;;;;;;;1.83;53.67;96724.81;5011955;28;20475;-67
2021/04/07 08:30:41;;;;;;;6.40;3.20;;;;;;;2.12;53.58;96711.56;5024976;28;20442;-67
2021/04/07 08:33:07;;;;;;;6.30;2.90;;;;;;;1.84;54.60;96721.31;5013743;28;20945;-68
2021/04/07 08:35:33;;;;;;;10.10;2.90;;;;;;;2.05;54.46;96711.19;5012734;28;20199;-67
2021/04/07 08:38:03;;;;;;;3.77;2.43;;;;;;;1.86;55.27;96736.69;5013595;28;20255;-66
2021/04/07 08:40:39;;;;;;;9.80;3.67;;;;;;;1.69;55.75;96721.47;5003909;28;20677;-68
2021/04/07 08:43:05;;;;;;;4.40;2.73;;;;;;;1.92;55.30;96731.91;5013962;28;20482;-68
2021/04/07 08:45:45;;;;;;;5.17;2.67;;;;;;;2.10;54.33;96728.94;5013355;28;20433;-66
2021/04/07 08:48:19;;;;;;;4.10;2.87;;;;;;;1.74;54.64;96728.06;5011267;28;20513;-66
2021/04/07 08:50:50;;;;;;;14.50;3.10;;;;;;;2.05;53.46;96728.44;5018295;28;20435;-69
2021/04/07 08:53:18;;;;;;;8.03;2.80;;;;;;;2.60;51.78;96731.34;5011472;28;20507;-68
2021/04/07 08:56:11;;;;;;;7.00;2.50;;;;;;;2.28;52.32;96737.13;5021235;28;20435;-67
2021/04/07 08:58:59;;;;;;;2.90;2.40;;;;;;;2.07;53.75;96731.75;5017871;28;20501;-67
2021/04/07 09:01:30;;;;;;;3.60;3.20;;;;;;;2.36;54.86;96739.16;5006607;28;20537;-67
2021/04/07 09:04:10;;;;;;;4.90;2.77;;;;;;;1.77;57.15;96751.94;5011592;28;20502;-67
2021/04/07 09:06:40;;;;;;;3.37;2.90;;;;;;;1.51;58.54;96740.84;5012413;28;20443;-66
2021/04/07 09:09:07;;;;;;;6.20;3.50;;;;;;;1.64;59.50;96759.69;5014166;28;20435;-66
2021/04/07 09:11:38;;;;;;;8.70;4.07;;;;;;;2.14;60.71;96751.06;5012036;28;20459;-67
2021/04/07 09:14:05;;;;;;;6.50;3.77;;;;;;;2.11;60.72;96757.25;5012391;28;20542;-67
2021/04/07 09:16:33;;;;;;;8.07;4.00;;;;;;;2.06;61.20;96761.13;5012058;28;20526;-67
2021/04/07 09:19:11;;;;;;;4.03;3.20;;;;;;;1.84;60.46;96760.06;5017885;28;20533;-67
2021/04/07 09:21:37;;;;;;;4.50;3.10;;;;;;;2.54;59.99;96761.06;5011171;28;20447;-67
2021/04/07 09:24:15;;;;;;;3.90;3.17;;;;;;;1.77;59.54;96769.16;5012002;28;20688;-68
2021/04/07 09:26:45;;;;;;;4.23;3.33;;;;;;;1.87;60.42;96754.69;5009099;28;20191;-68
2021/04/07 09:29:12;;;;;;;7.77;3.60;;;;;;;1.83;60.11;96761.00;5012381;28;20506;-66
2021/04/07 09:31:39;;;;;;;5.57;3.47;;;;;;;2.08;58.76;96747.13;5011238;28;20538;-68
2021/04/07 09:34:05;;;;;;;5.20;3.50;;;;;;;2.43;56.47;96748.09;5017324;28;20775;-66
2021/04/07 09:36:31;;;;;;;6.43;3.03;;;;;;;2.54;54.96;96745.53;5011301;28;20514;-67
2021/04/07 09:38:59;;;;;;;5.10;3.30;;;;;;;2.19;53.92;96746.38;5018297;28;20219;-68
2021/04/07 09:41:26;;;;;;;4.70;3.60;;;;;;;2.34;53.63;96751.38;5008203;28;20443;-68
2021/04/07 09:43:59;;;;;;;3.63;2.60;;;;;;;2.56;51.88;96751.44;5001105;28;20862;-68
2021/04/07 09:46:25;;;;;;;5.47;3.90;;;;;;;2.79;50.14;96743.72;5002626;28;20434;-67
2021/04/07 09:48:51;;;;;;;6.17;3.07;;;;;;;2.87;49.19;96743.16;5010179;28;20438;-67
2021/04/07 09:51:28;;;;;;;8.23;3.17;;;;;;;3.29;48.24;96734.81;5019020;28;20558;-68
2021/04/07 09:54:06;;;;;;;4.70;2.67;;;;;;;3.60;46.85;96738.44;5017683;28;20468;-68
2021/04/07 09:56:32;;;;;;;12.57;3.83;;;;;;;4.28;45.61;96737.47;5017628;28;20432;-67
2021/04/07 09:58:59;;;;;;;4.43;2.77;;;;;;;3.73;46.42;96743.50;5021025;28;20475;-68
2021/04/07 10:01:25;;;;;;;12.50;2.70;;;;;;;4.08;45.32;96750.25;5012342;28;20478;-68
2021/04/07 10:03:53;;;;;;;4.10;2.47;;;;;;;3.81;45.00;96748.91;5013861;28;20451;-68
2021/04/07 10:06:24;;;;;;;6.23;2.67;;;;;;;3.70;46.23;96748.91;5025926;28;20524;-68
2021/04/07 10:09:03;;;;;;;7.67;2.57;;;;;;;3.86;45.42;96732.97;5040834;28;20435;-68
2021/04/07 10:11:29;;;;;;;6.40;2.93;;;;;;;4.08;46.24;96739.06;5015084;28;20438;-68
2021/04/07 10:13:59;;;;;;;6.23;2.97;;;;;;;3.83;45.66;96762.56;5014633;28;20497;-68
2021/04/07 10:16:25;;;;;;;5.70;2.73;;;;;;;3.81;47.18;96759.25;5015262;28;20419;-68
2021/04/07 10:18:51;;;;;;;6.50;3.10;;;;;;;3.30;49.91;96763.22;5033426;28;20782;-69
2021/04/07 10:21:19;;;;;;;5.53;2.70;;;;;;;3.36;52.13;96785.22;5013753;28;20457;-68
2021/04/07 10:23:47;;;;;;;5.83;2.90;;;;;;;2.84;53.27;96789.97;5013806;28;20451;-67
2021/04/07 10:26:14;;;;;;;13.70;3.27;;;;;;;2.88;53.32;96774.13;5013251;28;20807;-69
2021/04/07 10:28:40;;;;;;;6.70;3.60;;;;;;;3.11;54.04;96778.47;5030338;28;20557;-70
2021/04/07 10:31:07;;;;;;;4.90;3.20;;;;;;;2.72;54.47;96789.94;5015032;28;20835;-69
2021/04/07 10:33:33;;;;;;;8.53;4.10;;;;;;;2.44;55.29;96781.63;5022739;28;20457;-68
2021/04/07 10:36:00;;;;;;;3.20;2.73;;;;;;;3.00;54.27;96792.25;5015652;28;20427;-68
2021/04/07 10:38:38;;;;;;;8.33;3.43;;;;;;;3.42;52.48;96794.28;5014981;28;20228;-69
2021/04/07 10:41:04;;;;;;;7.73;3.40;;;;;;;3.62;51.26;96792.75;5013423;28;20443;-69
2021/04/07 10:43:34;;;;;;;8.80;3.20;;;;;;;3.69;48.47;96806.88;5015157;28;20506;-68
2021/04/07 10:46:02;;;;;;;6.97;3.23;;;;;;;3.42;47.71;96800.28;5014304;28;20975;-69
2021/04/07 10:48:28;;;;;;;10.67;3.37;;;;;;;3.92;47.16;96796.47;5019131;28;20469;-69
2021/04/07 10:50:54;;;;;;;5.50;2.60;;;;;;;3.20;47.77;96788.97;5016948;28;20438;-70
2021/04/07 10:53:36;;;;;;;16.33;4.40;;;;;;;3.94;47.35;96784.22;5015248;28;20514;-68
2021/04/07 10:56:13;;;;;;;6.50;2.70;;;;;;;4.14;46.66;96780.06;5015398;28;20504;-68
2021/04/07 10:58:38;;;;;;;7.17;2.40;;;;;;;3.80;45.89;96786.13;5013349;28;20776;-68
2021/04/07 11:01:04;;;;;;;3.90;2.17;;;;;;;3.60;46.09;96787.69;5022332;28;20485;-69
2021/04/07 11:03:31;;;;;;;9.70;2.17;;;;;;;3.73;45.97;96781.53;5015190;28;20211;-69
2021/04/07 11:05:57;;;;;;;5.50;2.80;;;;;;;3.93;45.35;96782.56;5029631;28;20191;-70
2021/04/07 11:08:33;;;;;;;8.40;2.23;;;;;;;3.95;45.07;96783.28;5016140;28;20843;-69
2021/04/07 11:10:58;;;;;;;5.00;1.90;;;;;;;3.69;45.61;96792.19;5013652;28;20204;-69
2021/04/07 11:13:24;;;;;;;3.20;2.07;;;;;;;3.86;45.56;96781.44;5028822;28;20439;-69
2021/04/07 11:15:50;;;;;;;5.77;2.30;;;;;;;4.00;45.22;96783.75;5029221;28;20195;-68
2021/04/07 11:18:15;;;;;;;3.53;2.33;;;;;;;4.32;43.89;96800.28;5019431;28;20435;-67
2021/04/07 11:20:42;;;;;;;3.63;1.93;;;;;;;3.84;45.16;96778.97;5029023;28;20188;-68
2021/04/07 11:23:09;;;;;;;3.90;2.10;;;;;;;4.17;44.29;96786.75;5014202;28;20626;-70
2021/04/07 11:25:35;;;;;;;7.27;2.53;;;;;;;4.04;44.61;96779.97;5033626;28;20426;-68
2021/04/07 11:28:01;;;;;;;4.83;2.33;;;;;;;4.36;43.82;96788.69;5015492;28;20536;-68
2021/04/07 11:30:28;;;;;;;7.33;2.20;;;;;;;4.68;42.90;96786.09;5014092;28;20177;-69
2021/04/07 11:33:07;;;;;;;7.20;2.30;;;;;;;4.45;42.88;96778.41;5014151;28;20521;-69
2021/04/07 11:35:41;;;;;;;5.10;2.40;;;;;;;5.00;42.49;96774.84;5013455;28;20427;-68
2021/04/07 11:38:09;;;;;;;6.00;2.47;;;;;;;4.84;40.72;96771.84;5013151;28;20514;-69
2021/04/07 11:43:08;;;;;;;3.63;2.17;;;;;;;5.05;40.81;96790.03;5015455;28;21064;-69
2021/04/07 11:45:34;;;;;;;7.03;2.53;;;;;;;5.29;39.76;96787.16;5013312;28;20694;-69
2021/04/07 11:48:00;;;;;;;4.57;2.30;;;;;;;5.08;39.72;96769.00;5013203;28;20468;-69